Time;durP1;ratioP1;P1;durP2;ratioP2;P2;SDS_P1;SDS_P2;PMS_P1;PMS_P2;Temp;Humidity;BMP_temperature;BMP_pressure;BME280_temperature;BME280_humidity;BME280_pressure;Samples;Min_cycle;Max_cycle;Signal;HPM_P1;HPM_P2
2023/08/09 00:00:32;;;;;;;4.27;2.03;;;;;;;-143.21;68.66;72201.09;5072988;28;20201;-85
2023/08/09 00:03:00;;;;;;;2.60;1.90;;;;;;;-143.21;67.97;72199.09;5072680;28;20201;-85
2023/08/09 00:05:28;;;;;;;2.60;1.87;;;;;;;-143.21;67.40;72189.19;5086150;28;20747;-84
2023/08/09 00:07:55;;;;;;;3.60;2.20;;;;;;;-143.21;67.07;72193.16;5092881;28;20198;-85
2023/08/09 00:10:22;;;;;;;3.03;2.10;;;;;;;-143.21;67.93;72193.16;5073167;28;20243;-85
2023/08/09 00:12:49;;;;;;;2.47;1.87;;;;;;;-143.21;66.88;72189.19;5072872;28;20201;-85
2023/08/09 00:15:16;;;;;;;2.67;1.90;;;;;;;-143.21;66.84;72199.09;5072138;28;20201;-85
2023/08/09 00:17:43;;;;;;;2.13;1.93;;;;;;;-143.21;66.85;72207.03;5072298;28;20190;-86
2023/08/09 00:20:11;;;;;;;2.00;1.73;;;;;;;-143.21;66.93;72212.97;5072600;28;20206;-84
2023/08/09 00:22:39;;;;;;;4.00;1.93;;;;;;;-143.21;67.03;72211.00;5071666;28;20312;-85
2023/08/09 00:25:10;;;;;;;1.90;1.80;;;;;;;-143.21;67.03;72216.94;5071883;28;20197;-85
2023/08/09 00:27:37;;;;;;;2.27;1.90;;;;;;;-143.21;67.82;72224.88;5072138;28;20186;-85
2023/08/09 00:30:05;;;;;;;2.33;1.97;;;;;;;-143.21;67.63;72226.84;5071774;28;20193;-85
2023/08/09 00:32:32;;;;;;;2.77;1.97;;;;;;;-143.21;67.42;72222.91;5072131;28;20194;-86
2023/08/09 00:34:58;;;;;;;3.30;2.10;;;;;;;-143.21;67.55;72211.00;5072242;28;20216;-83
2023/08/09 00:37:26;;;;;;;5.30;1.97;;;;;;;-143.21;68.00;72212.97;5071769;28;20248;-84
2023/08/09 00:39:55;;;;;;;3.00;2.10;;;;;;;-143.21;67.82;72207.03;5072060;28;20208;-84
2023/08/09 00:42:23;;;;;;;2.33;1.87;;;;;;;-143.21;68.34;72207.03;5071752;28;20232;-84
2023/08/09 00:44:50;;;;;;;3.60;2.13;;;;;;;-143.21;68.24;72199.09;5071776;28;20197;-85
2023/08/09 00:47:17;;;;;;;6.03;2.13;;;;;;;-143.21;67.27;72201.09;5071779;28;20204;-85
2023/08/09 00:49:45;;;;;;;2.50;1.70;;;;;;;-143.21;67.21;72207.03;5071548;28;20233;-85
2023/08/09 00:52:12;;;;;;;3.50;1.77;;;;;;;-143.21;67.42;72214.97;5072156;28;20194;-85
2023/08/09 00:54:40;;;;;;;3.90;1.90;;;;;;;-143.21;68.06;72212.97;5071439;28;20198;-84
2023/08/09 00:57:08;;;;;;;2.07;1.87;;;;;;;-143.21;68.17;72218.94;5071560;28;20201;-86
2023/08/09 00:59:35;;;;;;;2.97;1.83;;;;;;;-143.21;68.05;72226.84;5071524;28;20201;-86
2023/08/09 01:02:02;;;;;;;2.80;2.00;;;;;;;-143.21;68.74;72207.03;5071390;28;20224;-85
2023/08/09 01:04:29;;;;;;;3.90;1.90;;;;;;;-143.21;67.65;72205.03;5071161;28;20649;-86
2023/08/09 01:07:03;;;;;;;2.00;1.80;;;;;;;-143.21;67.69;72207.03;5071245;28;20198;-85
2023/08/09 01:09:37;;;;;;;2.73;1.90;;;;;;;-143.21;68.20;72214.97;5071227;28;20263;-85
2023/08/09 01:12:08;;;;;;;2.80;1.90;;;;;;;-143.21;69.02;72216.94;5071240;28;20579;-85
2023/08/09 01:14:39;;;;;;;3.70;2.23;;;;;;;-143.21;67.99;72218.94;5071403;28;20208;-85
2023/08/09 01:17:09;;;;;;;2.57;1.97;;;;;;;-143.21;68.14;72224.88;5071599;28;20235;-85
2023/08/09 01:19:41;;;;;;;8.50;2.00;;;;;;;-143.21;68.55;72220.91;5071316;28;20201;-86
2023/08/09 01:22:13;;;;;;;2.80;2.10;;;;;;;-143.21;68.79;72218.94;5070818;28;20279;-85
2023/08/09 01:24:42;;;;;;;8.63;2.47;;;;;;;-143.21;68.44;72211.00;5071114;28;20193;-84
2023/08/09 01:27:09;;;;;;;3.77;2.23;;;;;;;-143.21;68.18;72216.94;5070590;28;20555;-84
2023/08/09 01:29:36;;;;;;;3.47;2.20;;;;;;;-143.21;67.65;72214.97;5080733;28;20232;-86
2023/08/09 01:32:03;;;;;;;2.93;2.30;;;;;;;-143.21;67.66;72212.97;5077963;28;20396;-86
2023/08/09 01:34:30;;;;;;;4.50;2.13;;;;;;;-143.21;67.46;72220.91;5071081;28;20205;-86
2023/08/09 01:37:03;;;;;;;3.60;2.20;;;;;;;-143.21;67.71;72218.94;5070758;28;20232;-87
2023/08/09 01:39:34;;;;;;;2.63;2.17;;;;;;;-143.21;67.77;72226.84;5077898;28;20204;-87
2023/08/09 01:42:03;;;;;;;6.13;2.20;;;;;;;-143.21;68.08;72226.84;5074828;28;20227;-88
2023/08/09 01:44:30;;;;;;;5.80;2.37;;;;;;;-143.21;68.10;72232.81;5074699;28;20240;-86
2023/08/09 01:46:58;;;;;;;7.33;2.10;;;;;;;-143.21;68.23;72228.84;5090907;28;20570;-86
2023/08/09 01:49:26;;;;;;;3.70;2.30;;;;;;;-143.21;68.59;72224.88;5090839;28;20193;-86
2023/08/09 01:51:53;;;;;;;3.13;2.37;;;;;;;-143.21;69.19;72230.81;5073365;28;20615;-84
2023/08/09 01:54:20;;;;;;;3.20;2.00;;;;;;;-143.21;68.82;72234.78;5070577;28;20204;-83
2023/08/09 01:56:47;;;;;;;3.37;1.93;;;;;;;-143.21;68.34;72222.91;5070457;28;20219;-85
2023/08/09 01:59:16;;;;;;;5.10;2.13;;;;;;;-143.21;67.94;72234.78;5070732;28;20194;-84
2023/08/09 02:01:43;;;;;;;2.30;2.00;;;;;;;-143.21;68.44;72236.78;5071543;28;20700;-83
2023/08/09 02:04:10;;;;;;;2.63;2.20;;;;;;;-143.21;68.19;72234.78;5070796;28;20207;-83
2023/08/09 02:06:38;;;;;;;2.10;1.90;;;;;;;-143.21;67.90;72230.81;5070710;28;20595;-83
2023/08/09 02:09:06;;;;;;;2.17;1.97;;;;;;;-143.21;68.50;72232.81;5071038;28;20235;-83
2023/08/09 02:11:33;;;;;;;3.20;2.20;;;;;;;-143.21;68.90;72244.72;5070734;28;20274;-83
2023/08/09 02:14:00;;;;;;;2.90;2.40;;;;;;;-143.21;69.02;72240.75;5070733;28;20220;-83
2023/08/09 02:16:28;;;;;;;5.90;2.50;;;;;;;-143.21;68.82;72240.75;5070680;28;20218;-84
2023/08/09 02:18:55;;;;;;;3.20;2.43;;;;;;;-143.21;68.68;72238.75;5070549;28;20199;-84
2023/08/09 02:21:22;;;;;;;5.33;2.53;;;;;;;-143.21;69.32;72244.72;5070407;28;20198;-83
2023/08/09 02:23:49;;;;;;;2.17;1.90;;;;;;;-143.21;69.43;72248.66;5070424;28;20204;-83
2023/08/09 02:26:18;;;;;;;3.83;2.20;;;;;;;-143.21;69.07;72248.66;5070457;28;20684;-84
2023/08/09 02:28:45;;;;;;;4.40;2.67;;;;;;;-143.21;69.10;72248.66;5070914;28;20301;-85
2023/08/09 02:31:12;;;;;;;4.07;2.20;;;;;;;-143.21;68.87;72254.63;5071388;28;20209;-85
2023/08/09 02:33:40;;;;;;;4.50;2.40;;;;;;;-143.21;70.02;72264.53;5071687;28;20197;-85
2023/08/09 02:36:08;;;;;;;3.23;2.30;;;;;;;-143.21;70.37;72264.53;5071131;28;20189;-85
2023/08/09 02:38:35;;;;;;;5.23;2.40;;;;;;;-143.21;69.92;72234.78;5070444;28;20194;-85
2023/08/09 02:41:03;;;;;;;6.70;2.30;;;;;;;-143.21;69.31;72232.81;5070214;28;20193;-85
2023/08/09 02:43:30;;;;;;;5.00;2.40;;;;;;;-143.21;68.97;72226.84;5070004;28;20221;-85
2023/08/09 02:45:57;;;;;;;7.13;2.73;;;;;;;-143.21;68.61;72232.81;5070464;28;20186;-84
2023/08/09 02:48:25;;;;;;;5.33;2.30;;;;;;;-143.21;68.42;72240.75;5070871;28;20266;-84
2023/08/09 02:50:53;;;;;;;5.53;2.90;;;;;;;-143.21;68.78;72240.75;5071928;28;20319;-83
2023/08/09 02:53:20;;;;;;;5.53;2.33;;;;;;;-143.21;68.63;72248.66;5073911;28;20206;-84
2023/08/09 02:55:47;;;;;;;4.03;2.30;;;;;;;-143.21;68.43;72260.56;5073637;28;20197;-83
2023/08/09 02:58:14;;;;;;;4.37;2.20;;;;;;;-143.21;69.16;72262.56;5073077;28;20698;-83
2023/08/09 03:00:41;;;;;;;4.90;2.47;;;;;;;-143.21;69.55;72276.44;5073987;28;20209;-83
2023/08/09 03:03:08;;;;;;;3.50;2.43;;;;;;;-143.21;70.02;72280.41;5073298;28;20225;-83
2023/08/09 03:05:35;;;;;;;3.00;2.57;;;;;;;-143.21;69.37;72280.41;5074510;28;20209;-83
2023/08/09 03:08:04;;;;;;;3.30;2.73;;;;;;;-143.21;68.95;72282.38;5074286;28;20216;-84
2023/08/09 03:10:31;;;;;;;5.03;2.90;;;;;;;-143.21;68.87;72304.19;5073157;28;20673;-83
2023/08/09 03:12:58;;;;;;;4.87;2.77;;;;;;;-143.21;69.50;72320.06;5073545;28;20208;-84
2023/08/09 03:15:25;;;;;;;10.90;2.80;;;;;;;-143.21;69.93;72335.94;5073168;28;20649;-84
2023/08/09 03:17:52;;;;;;;6.83;2.63;;;;;;;-143.21;71.02;72357.75;5073560;28;20202;-83
2023/08/09 03:20:19;;;;;;;5.90;2.87;;;;;;;-143.21;70.51;72351.78;5073396;28;20251;-84
2023/08/09 03:22:47;;;;;;;3.33;2.87;;;;;;;-143.21;70.56;72363.69;5073436;28;20221;-83
2023/08/09 03:25:16;;;;;;;3.20;2.63;;;;;;;-143.21;70.92;72387.50;5073078;28;20216;-83
2023/08/09 03:27:43;;;;;;;5.37;2.80;;;;;;;-143.21;71.19;72395.44;5073259;28;20524;-84
2023/08/09 03:30:11;;;;;;;3.47;2.77;;;;;;;-143.21;71.45;72401.38;5073230;28;20197;-83
2023/08/09 03:32:38;;;;;;;5.57;2.87;;;;;;;-143.21;72.28;72395.44;5064821;28;20671;-83
2023/08/09 03:35:06;;;;;;;8.23;5.27;;;;;;;-143.21;72.10;72387.50;5073201;28;20205;-83
2023/08/09 03:37:36;;;;;;;6.87;3.60;;;;;;;-143.21;72.31;72385.50;5073068;28;20190;-84
2023/08/09 03:40:03;;;;;;;5.30;2.70;;;;;;;-143.21;71.69;72375.59;5073500;28;20197;-83
2023/08/09 03:42:32;;;;;;;5.00;3.00;;;;;;;-143.21;71.50;72361.72;5072654;28;20696;-83
2023/08/09 03:44:58;;;;;;;6.63;2.97;;;;;;;-143.21;71.95;72371.63;5073239;28;20285;-84
2023/08/09 03:47:25;;;;;;;5.67;3.27;;;;;;;-143.21;72.03;72363.69;5087454;28;20205;-83
2023/08/09 03:49:52;;;;;;;11.43;3.90;;;;;;;-143.21;71.28;72333.94;5092919;28;20185;-83
2023/08/09 03:52:19;;;;;;;9.77;4.17;;;;;;;-143.21;70.37;72306.19;5089171;28;20288;-84
2023/08/09 03:54:47;;;;;;;11.77;3.80;;;;;;;-143.21;69.45;72298.25;5072792;28;20209;-84
2023/08/09 03:57:14;;;;;;;13.20;4.17;;;;;;;-143.21;69.25;72296.28;5072207;28;20233;-84
2023/08/09 03:59:43;;;;;;;11.20;3.30;;;;;;;-143.21;69.19;72298.25;5072806;28;20202;-83
2023/08/09 04:02:10;;;;;;;6.37;3.40;;;;;;;-143.21;69.06;72296.28;5072339;28;20265;-84
2023/08/09 04:04:36;;;;;;;6.50;3.20;;;;;;;-143.21;69.07;72304.19;5072379;28;20204;-83
2023/08/09 04:07:04;;;;;;;4.70;3.00;;;;;;;-143.21;69.05;72310.16;5072479;28;20186;-84
2023/08/09 04:09:32;;;;;;;6.87;3.27;;;;;;;-143.21;69.53;72310.16;5072244;28;20289;-84
2023/08/09 04:11:59;;;;;;;6.37;3.10;;;;;;;-143.21;69.65;72324.03;5072618;28;20890;-84
2023/08/09 04:14:27;;;;;;;9.87;3.50;;;;;;;-143.21;69.76;72324.03;5072364;28;20278;-84
2023/08/09 04:16:56;;;;;;;7.87;3.43;;;;;;;-143.21;69.89;72318.09;5072424;28;20186;-84
2023/08/09 04:19:24;;;;;;;8.53;4.30;;;;;;;-143.21;70.06;72316.09;5072103;28;20198;-84
2023/08/09 04:21:51;;;;;;;9.67;4.70;;;;;;;-143.21;69.96;72318.09;5071991;28;20201;-84
2023/08/09 04:24:18;;;;;;;13.57;4.90;;;;;;;-143.21;70.00;72310.16;5071990;28;20304;-84
2023/08/09 04:26:46;;;;;;;14.47;4.87;;;;;;;-143.21;70.06;72312.13;5071941;28;20206;-84
2023/08/09 04:29:13;;;;;;;14.90;4.77;;;;;;;-143.21;70.29;72318.09;5072074;28;20192;-85
2023/08/09 04:31:40;;;;;;;9.80;4.63;;;;;;;-143.21;70.37;72318.09;5072212;28;20189;-84
2023/08/09 04:34:08;;;;;;;8.37;4.10;;;;;;;-143.21;70.60;72322.06;5071864;28;20189;-84
2023/08/09 04:36:35;;;;;;;9.67;3.80;;;;;;;-143.21;70.43;72300.25;5072138;28;20653;-84
2023/08/09 04:39:02;;;;;;;8.60;4.30;;;;;;;-143.21;70.13;72300.25;5071692;28;20568;-84
2023/08/09 04:41:31;;;;;;;7.47;3.43;;;;;;;-143.21;69.74;72294.28;5072142;28;20197;-84
2023/08/09 04:43:58;;;;;;;7.37;3.23;;;;;;;-143.21;69.48;72292.31;5072198;28;20692;-83
2023/08/09 04:46:25;;;;;;;7.53;3.40;;;;;;;-143.21;69.42;72302.22;5072466;28;20193;-86
2023/08/09 04:48:51;;;;;;;9.03;3.40;;;;;;;-143.21;69.66;72306.19;5072223;28;20201;-85
2023/08/09 04:51:20;;;;;;;7.83;3.57;;;;;;;-143.21;70.26;72329.97;5071825;28;20229;-84
2023/08/09 04:53:47;;;;;;;5.80;3.60;;;;;;;-143.21;70.34;72320.06;5071711;28;20205;-84
2023/08/09 04:56:13;;;;;;;6.63;3.20;;;;;;;-143.21;69.76;72292.31;5071712;28;20696;-84
2023/08/09 04:58:40;;;;;;;8.20;3.43;;;;;;;-143.21;69.17;72282.38;5071426;28;20669;-81
2023/08/09 05:01:07;;;;;;;6.53;3.33;;;;;;;-143.21;68.80;72280.41;5071151;28;20217;-82
2023/08/09 05:03:34;;;;;;;7.70;3.83;;;;;;;-143.21;69.03;72280.41;5071480;28;20213;-87
2023/08/09 05:06:02;;;;;;;7.60;3.73;;;;;;;-143.21;68.87;72278.41;5070829;28;20696;-79
2023/08/09 05:08:30;;;;;;;7.03;4.00;;;;;;;-143.21;68.82;72284.38;5071762;28;20201;-80
2023/08/09 05:10:57;;;;;;;10.37;4.60;;;;;;;-143.21;69.19;72294.28;5081317;28;20259;-80
2023/08/09 05:13:25;;;;;;;6.90;3.87;;;;;;;-143.21;69.26;72290.31;5070319;28;20205;-80
2023/08/09 05:15:51;;;;;;;6.30;3.53;;;;;;;-143.21;69.29;72298.25;5071125;28;20186;-81
2023/08/09 05:18:18;;;;;;;9.33;3.67;;;;;;;-143.21;69.14;72306.19;5070884;28;20199;-81
2023/08/09 05:20:45;;;;;;;6.40;3.17;;;;;;;-143.21;69.21;72310.16;5070912;28;20201;-81
2023/08/09 05:23:12;;;;;;;4.67;3.20;;;;;;;-143.21;69.05;72320.06;5070032;28;20595;-81
2023/08/09 05:25:41;;;;;;;7.47;3.20;;;;;;;-143.21;69.75;72322.06;5071231;28;20189;-81
2023/08/09 05:28:08;;;;;;;5.60;3.00;;;;;;;-143.21;69.30;72318.09;5070760;28;20197;-81
2023/08/09 05:30:35;;;;;;;4.33;2.97;;;;;;;-143.21;69.04;72306.19;5070549;28;20702;-80
2023/08/09 05:33:02;;;;;;;3.97;3.23;;;;;;;-143.21;69.21;72310.16;5070355;28;20197;-80
2023/08/09 05:35:29;;;;;;;4.90;3.03;;;;;;;-143.21;69.45;72312.13;5068716;28;20194;-81
2023/08/09 05:37:56;;;;;;;4.13;3.23;;;;;;;-143.21;69.46;72302.22;5070651;28;20197;-82
2023/08/09 05:40:22;;;;;;;5.40;2.90;;;;;;;-143.21;69.84;72302.22;5069936;28;20200;-81
2023/08/09 05:42:51;;;;;;;4.00;2.70;;;;;;;-143.21;69.03;72292.31;5069635;28;20274;-81
2023/08/09 05:45:18;;;;;;;3.60;2.40;;;;;;;-143.21;68.78;72290.31;5070085;28;20193;-83
2023/08/09 05:47:45;;;;;;;4.47;3.10;;;;;;;-143.21;68.76;72286.34;5070574;28;20234;-81
2023/08/09 05:50:12;;;;;;;5.83;2.60;;;;;;;-143.21;68.63;72286.34;5070078;28;20236;-81
2023/08/09 05:52:39;;;;;;;7.53;3.03;;;;;;;-143.21;68.84;72280.41;5070240;28;20683;-81
2023/08/09 05:55:07;;;;;;;3.57;2.87;;;;;;;-143.21;68.35;72272.47;5070678;28;20209;-81
2023/08/09 05:57:36;;;;;;;5.93;2.93;;;;;;;-143.21;68.00;72268.50;5070431;28;20197;-81
2023/08/09 06:00:06;;;;;;;7.03;3.33;;;;;;;-143.21;67.87;72272.47;5070306;28;20189;-80
2023/08/09 06:02:33;;;;;;;5.30;2.97;;;;;;;-143.21;68.26;72292.31;5070455;28;20205;-80
2023/08/09 06:05:00;;;;;;;4.50;2.80;;;;;;;-143.21;68.90;72298.25;5070800;28;20201;-80
2023/08/09 06:07:28;;;;;;;3.73;3.00;;;;;;;-143.21;69.03;72296.28;5070235;28;20737;-80
2023/08/09 06:09:57;;;;;;;4.00;2.83;;;;;;;-143.21;68.69;72294.28;5070730;28;20286;-79
2023/08/09 06:12:24;;;;;;;4.80;3.07;;;;;;;-143.21;68.57;72288.34;5070307;28;20204;-80
2023/08/09 06:14:51;;;;;;;4.80;3.17;;;;;;;-143.21;68.79;72284.38;5070415;28;20575;-79
2023/08/09 06:17:19;;;;;;;6.27;3.50;;;;;;;-143.21;69.02;72276.44;5070123;28;20201;-79
2023/08/09 06:19:46;;;;;;;5.03;3.30;;;;;;;-143.21;68.91;72274.47;5070635;28;20220;-80
2023/08/09 06:22:13;;;;;;;6.03;3.37;;;;;;;-143.21;68.64;72252.63;5070410;28;20205;-80
2023/08/09 06:24:40;;;;;;;6.03;4.10;;;;;;;-143.21;68.25;72220.91;5070100;28;20221;-80
2023/08/09 06:27:07;;;;;;;7.33;3.33;;;;;;;-143.21;68.02;72199.09;5079064;28;20616;-80
2023/08/09 06:29:34;;;;;;;8.10;3.43;;;;;;;-143.21;67.91;72199.09;5077318;28;20228;-80
2023/08/09 06:32:01;;;;;;;7.77;3.37;;;;;;;-143.21;67.75;72189.19;5074357;28;20216;-80
2023/08/09 06:34:29;;;;;;;7.00;3.70;;;;;;;-143.21;66.93;72189.19;5073394;28;20649;-80
2023/08/09 06:36:55;;;;;;;7.83;3.50;;;;;;;-143.21;66.61;72185.22;5074240;28;20197;-79
2023/08/09 06:39:22;;;;;;;7.23;3.63;;;;;;;-143.21;66.72;72183.22;5074060;28;20246;-79
2023/08/09 06:41:50;;;;;;;4.43;3.20;;;;;;;-143.21;66.58;72179.25;5073647;28;20250;-79
2023/08/09 06:44:17;;;;;;;4.73;3.87;;;;;;;-143.21;66.08;72185.22;5073820;28;20256;-80
2023/08/09 06:46:44;;;;;;;10.63;3.70;;;;;;;-143.21;66.65;72199.09;5073511;28;20201;-80
2023/08/09 06:49:10;;;;;;;9.23;4.17;;;;;;;-143.21;67.12;72214.97;5073726;28;20194;-83
2023/08/09 06:51:39;;;;;;;7.07;3.80;;;;;;;-143.21;67.19;72181.25;5073442;28;20225;-83
2023/08/09 06:54:06;;;;;;;8.73;4.07;;;;;;;-143.21;66.11;72147.53;5073885;28;20426;-85
2023/08/09 06:56:35;;;;;;;7.73;3.93;;;;;;;-143.21;65.78;72117.78;5074656;28;20286;-84
2023/08/09 06:59:02;;;;;;;7.47;4.47;;;;;;;-143.21;65.40;72109.84;5075120;28;20650;-85
2023/08/09 07:01:29;;;;;;;6.60;3.80;;;;;;;-143.21;65.03;72099.94;5074163;28;20272;-82
2023/08/09 07:03:56;;;;;;;4.70;3.60;;;;;;;-143.21;64.72;72090.03;5073603;28;20233;-82
2023/08/09 07:06:23;;;;;;;10.80;4.07;;;;;;;-143.21;65.14;72082.09;5073708;28;20197;-82
2023/08/09 07:08:53;;;;;;;10.07;4.45;;;;;;;-143.21;65.64;72068.22;5073149;28;20703;-83
2023/08/09 07:11:20;;;;;;;9.82;4.55;;;;;;;-143.21;65.13;72046.41;5072826;28;20652;-82
2023/08/09 07:13:47;;;;;;;4.32;3.80;;;;;;;-143.21;66.79;72008.72;5073443;28;20743;-81
2023/08/09 07:16:14;;;;;;;6.20;4.32;;;;;;;-143.21;63.76;71994.84;5073830;28;20197;-82
2023/08/09 07:18:40;;;;;;;7.63;5.20;;;;;;;-143.21;61.99;71990.88;5073897;28;20190;-85
2023/08/09 07:21:07;;;;;;;7.43;4.10;;;;;;;-143.21;64.68;71963.13;5073674;28;20251;-84
2023/08/09 07:23:34;;;;;;;7.85;4.43;;;;;;;-143.21;62.28;71953.19;5067913;28;20217;-83
2023/08/09 07:26:02;;;;;;;7.88;4.53;;;;;;;-143.21;63.16;71939.31;5065659;28;20190;-83
2023/08/09 07:28:29;;;;;;;8.50;5.50;;;;;;;-143.21;61.57;71925.44;5063606;28;20217;-83
2023/08/09 07:30:56;;;;;;;12.88;5.22;;;;;;;-143.21;61.63;71929.41;5068092;28;20197;-83
2023/08/09 07:33:23;;;;;;;7.13;5.07;;;;;;;-143.21;61.49;71923.47;5073584;28;20204;-81
2023/08/09 07:35:50;;;;;;;9.82;4.90;;;;;;;-143.21;61.18;71925.44;5071936;28;20575;-82
2023/08/09 07:38:17;;;;;;;6.95;5.47;;;;;;;-143.21;60.75;71923.47;5073341;28;20537;-82
2023/08/09 07:40:45;;;;;;;13.68;6.32;;;;;;;-143.21;60.29;71915.53;5065064;28;20189;-82
2023/08/09 07:43:13;;;;;;;8.98;4.45;;;;;;;-143.21;62.70;71854.06;5072827;28;20229;-82
2023/08/09 07:45:45;;;;;;;6.85;4.25;;;;;;;-143.21;58.81;71788.63;5065007;28;20193;-82
2023/08/09 07:48:13;;;;;;;10.85;5.72;;;;;;;-143.21;56.45;71754.91;5059048;28;20201;-84
2023/08/09 07:50:39;;;;;;;12.32;5.55;;;;;;;-143.21;55.79;71758.88;5072967;28;20226;-84
2023/08/09 07:53:06;;;;;;;9.40;5.57;;;;;;;-143.21;55.90;71766.81;5073799;28;20229;-83
2023/08/09 07:55:34;;;;;;;7.70;5.50;;;;;;;-143.21;56.50;71770.78;5073422;28;20223;-84
2023/08/09 07:58:00;;;;;;;9.07;5.50;;;;;;;-143.21;56.56;71776.72;5073075;28;20276;-83
2023/08/09 08:00:29;;;;;;;9.20;5.53;;;;;;;-143.21;55.44;71786.63;5072968;28;20194;-84
2023/08/09 08:02:55;;;;;;;7.70;5.70;;;;;;;-143.21;55.51;71796.56;5073359;28;20611;-83
2023/08/09 08:05:22;;;;;;;7.22;5.25;;;;;;;-143.21;56.34;71796.56;5072631;28;20217;-83
2023/08/09 08:07:49;;;;;;;10.40;4.95;;;;;;;-143.21;56.95;71800.53;5072810;28;20201;-86
2023/08/09 08:10:16;;;;;;;6.25;4.47;;;;;;;-143.21;56.35;71774.75;5072369;28;20213;-86
2023/08/09 08:12:44;;;;;;;8.82;4.60;;;;;;;-143.21;55.78;71752.94;5072428;28;20208;-84
2023/08/09 08:15:13;;;;;;;7.75;4.30;;;;;;;-143.21;54.67;71746.97;5072816;28;20200;-85
2023/08/09 08:17:41;;;;;;;8.00;4.50;;;;;;;-143.21;53.88;71741.03;5072584;28;20190;-84
2023/08/09 08:20:15;;;;;;;5.90;3.72;;;;;;;-143.21;53.27;71733.09;5072773;28;20193;-83
2023/08/09 08:22:42;;;;;;;6.45;3.45;;;;;;;-143.21;53.06;71746.97;5072932;28;20206;-84
2023/08/09 08:25:11;;;;;;;5.32;3.90;;;;;;;-143.21;53.52;71746.97;5071761;28;20221;-85
2023/08/09 08:27:38;;;;;;;4.53;3.50;;;;;;;-143.21;53.79;71746.97;5072352;28;20215;-84
2023/08/09 08:30:08;;;;;;;5.25;3.80;;;;;;;-143.21;53.51;71739.06;5071847;28;20220;-82
2023/08/09 08:32:36;;;;;;;4.60;3.95;;;;;;;-143.21;54.06;71733.09;5071767;28;20268;-82
2023/08/09 08:35:10;;;;;;;6.00;3.67;;;;;;;-143.21;53.98;71727.16;5072197;28;20212;-81
2023/08/09 08:37:38;;;;;;;7.53;3.45;;;;;;;-143.21;53.53;71713.28;5072449;28;20209;-82
2023/08/09 08:40:08;;;;;;;3.97;3.45;;;;;;;-143.21;53.11;71701.38;5071604;28;20619;-81
2023/08/09 08:42:35;;;;;;;5.38;3.55;;;;;;;-143.21;53.16;71689.47;5071550;28;20202;-84
2023/08/09 08:45:11;;;;;;;4.57;3.75;;;;;;;-143.21;52.38;71681.56;5071665;28;20605;-83
2023/08/09 08:47:44;;;;;;;4.43;3.70;;;;;;;-143.21;52.26;71669.66;5071524;28;20663;-80
2023/08/09 08:50:18;;;;;;;8.77;3.40;;;;;;;-143.21;52.22;71663.72;5071707;28;20236;-84
2023/08/09 08:52:47;;;;;;;5.18;3.33;;;;;;;-143.21;52.39;71645.88;5071646;28;20197;-81
2023/08/09 08:55:15;;;;;;;4.53;3.47;;;;;;;-143.21;52.78;71631.97;5071353;28;20197;-82
2023/08/09 08:57:47;;;;;;;4.57;3.67;;;;;;;-143.21;52.73;71620.09;5071661;28;20213;-84
2023/08/09 09:00:20;;;;;;;4.00;3.60;;;;;;;-143.21;52.25;71606.22;5071481;28;20201;-84
2023/08/09 09:03:01;;;;;;;4.53;3.25;;;;;;;-143.21;51.99;71590.34;5071433;28;20641;-83
2023/08/09 09:05:37;;;;;;;6.32;3.00;;;;;;;-143.21;51.52;71580.44;5070769;28;20729;-80
2023/08/09 09:08:04;;;;;;;5.82;2.80;;;;;;;-143.21;51.83;71556.63;5071512;28;20196;-80
2023/08/09 09:10:31;;;;;;;3.70;3.25;;;;;;;-143.21;52.08;71536.81;5070789;28;20201;-81
2023/08/09 09:12:58;;;;;;;3.83;3.20;;;;;;;-143.21;51.34;71513.03;5065767;28;20250;-80
2023/08/09 09:15:26;;;;;;;3.20;2.90;;;;;;;-143.21;50.33;71471.38;5064327;28;20227;-81
2023/08/09 09:17:53;;;;;;;7.10;3.30;;;;;;;-143.21;49.05;71447.59;5068734;28;20465;-80
2023/08/09 09:20:23;;;;;;;3.80;3.33;;;;;;;-143.21;48.50;71437.69;5070412;28;20664;-80
2023/08/09 09:22:52;;;;;;;4.82;3.28;;;;;;;-143.21;49.15;71427.75;5070472;28;20229;-80
2023/08/09 09:25:19;;;;;;;5.22;3.00;;;;;;;-143.21;49.14;71423.78;5069201;28;20217;-80
2023/08/09 09:27:49;;;;;;;5.45;3.58;;;;;;;-143.21;49.21;71405.94;5070362;28;20200;-80
2023/08/09 09:30:19;;;;;;;3.85;2.97;;;;;;;-143.21;49.18;71380.19;5068842;28;20200;-80
2023/08/09 09:32:58;;;;;;;3.33;2.90;;;;;;;-143.21;48.98;71352.44;5067610;28;20288;-80
2023/08/09 09:35:26;;;;;;;3.00;2.78;;;;;;;-143.21;48.71;71332.59;5071243;28;20239;-79
2023/08/09 09:37:58;;;;;;;3.67;3.25;;;;;;;-143.21;48.05;71308.81;5070855;28;20293;-80
2023/08/09 09:40:27;;;;;;;3.30;3.00;;;;;;;-143.21;47.70;71281.06;5071312;28;20193;-80
2023/08/09 09:42:55;;;;;;;3.63;2.95;;;;;;;-143.21;46.79;71259.25;5070832;28;20446;-79
2023/08/09 09:45:24;;;;;;;4.72;2.88;;;;;;;-143.21;46.58;71247.34;5070539;28;20228;-80
2023/08/09 09:47:51;;;;;;;4.20;2.92;;;;;;;-143.21;46.19;71229.50;5070392;28;20569;-80
2023/08/09 09:50:18;;;;;;;4.85;2.78;;;;;;;-143.21;46.12;71203.72;5070477;28;20318;-78
2023/08/09 09:52:46;;;;;;;3.05;2.75;;;;;;;-143.21;44.64;71203.72;5070504;28;20264;-78
2023/08/09 09:55:18;;;;;;;4.43;2.75;;;;;;;-143.21;44.20;71201.75;5070051;28;20679;-83
2023/08/09 09:57:45;;;;;;;2.90;2.63;;;;;;;-143.21;44.40;71199.78;5070213;28;20201;-80
2023/08/09 10:00:14;;;;;;;4.43;2.60;;;;;;;-143.21;44.98;71213.66;5069877;28;20306;-79
2023/08/09 10:02:46;;;;;;;2.83;2.55;;;;;;;-143.21;45.27;71203.72;5050157;28;20206;-80
2023/08/09 10:05:15;;;;;;;4.10;2.65;;;;;;;-143.21;44.83;71174.00;5049925;28;20202;-79
2023/08/09 10:07:46;;;;;;;5.78;2.75;;;;;;;-143.21;43.06;71140.28;5057990;28;20678;-79
2023/08/09 10:10:16;;;;;;;2.60;2.40;;;;;;;-143.21;41.68;71136.31;5070340;28;20208;-81
2023/08/09 10:12:48;;;;;;;6.70;2.50;;;;;;;-143.21;42.38;71134.34;5049970;28;20202;-79
2023/08/09 10:15:18;;;;;;;6.25;2.80;;;;;;;-143.21;42.81;71130.38;5054249;28;20224;-81
2023/08/09 10:17:49;;;;;;;3.60;2.95;;;;;;;-143.21;42.93;71114.53;5076701;28;20202;-81
2023/08/09 10:20:18;;;;;;;4.20;2.97;;;;;;;-143.21;42.82;71110.56;5070528;28;20209;-82
2023/08/09 10:22:47;;;;;;;2.97;2.67;;;;;;;-143.21;42.57;71098.66;5070434;28;20280;-82
2023/08/09 10:25:19;;;;;;;2.80;2.60;;;;;;;-143.21;42.59;71076.84;5070187;28;20228;-83
2023/08/09 10:27:53;;;;;;;4.30;2.50;;;;;;;-143.21;41.70;71064.97;5069672;28;20197;-81
2023/08/09 10:30:26;;;;;;;2.80;2.60;;;;;;;-143.21;41.85;71057.03;5070021;28;20637;-80
2023/08/09 10:32:55;;;;;;;5.55;3.42;;;;;;;-143.21;42.33;71007.47;5050007;28;20630;-79
2023/08/09 10:35:45;;;;;;;3.72;2.78;;;;;;;-143.21;41.89;70934.13;5050173;28;20198;-80
2023/08/09 10:38:14;;;;;;;5.85;2.60;;;;;;;-143.21;39.65;70874.66;5050342;28;20179;-81
2023/08/09 10:40:43;;;;;;;4.88;3.70;;;;;;;-143.21;39.57;70813.19;5056908;28;20676;-80
2023/08/09 10:43:17;;;;;;;3.13;2.40;;;;;;;-143.21;38.79;70747.78;5069718;28;20197;-80
2023/08/09 10:45:45;;;;;;;4.13;2.53;;;;;;;-143.21;37.85;70725.97;5069747;28;20228;-80
2023/08/09 10:48:23;;;;;;;3.00;2.42;;;;;;;-143.21;37.52;70688.31;5069262;28;20228;-80
2023/08/09 10:51:02;;;;;;;2.60;2.40;;;;;;;-143.21;36.34;70656.59;5075506;28;20231;-80
2023/08/09 10:53:29;;;;;;;2.28;2.08;;;;;;;-143.21;36.35;70660.56;5069691;28;20725;-81
2023/08/09 10:55:58;;;;;;;2.60;2.40;;;;;;;-143.21;35.95;70678.41;5069949;28;20202;-80
2023/08/09 10:58:29;;;;;;;2.50;2.30;;;;;;;-143.21;36.87;70704.19;5069615;28;20195;-80
2023/08/09 11:00:56;;;;;;;2.70;2.47;;;;;;;-143.21;37.11;70704.19;5069593;28;20623;-79
2023/08/09 11:03:23;;;;;;;4.20;2.70;;;;;;;-143.21;37.19;70688.31;5069903;28;20193;-79
2023/08/09 11:05:52;;;;;;;3.55;2.80;;;;;;;-143.21;36.87;70672.47;5069775;28;20224;-81
2023/08/09 11:08:19;;;;;;;2.50;2.30;;;;;;;-143.21;36.16;70666.50;5069506;28;20201;-80
2023/08/09 11:10:48;;;;;;;5.28;2.13;;;;;;;-143.21;36.53;70674.44;5069942;28;20288;-80
2023/08/09 11:13:19;;;;;;;2.63;2.20;;;;;;;-143.21;36.38;70646.69;5073936;28;20194;-80
2023/08/09 11:15:47;;;;;;;2.50;2.30;;;;;;;-143.21;36.18;70622.91;5073803;28;20209;-79
2023/08/09 11:18:14;;;;;;;3.75;2.30;;;;;;;-143.21;36.11;70587.22;5073541;28;20211;-80
2023/08/09 11:20:41;;;;;;;2.33;2.03;;;;;;;-143.21;35.30;70545.59;5073646;28;20668;-80